Sault Sainte Marie, MI

11:01 AM EDT on August 29, 2015 (GMT -0400)
Sault Ste Marie Municipal / Sanderson Field | | Change Station
CLOSE
Current Station
Airport
Location: Sault Ste Marie,
Elevation: 715 ft
Nearby Weather Stations

Elev 715 ft 46.48 °N, 84.36 °W | Updated 6 minutes ago

Overcast
Overcast
63 °F
Feels Like 63 °F
N
0
Wind Variable Wind from North

Today
High -- | Low -- °F
--% Chance of Precip.
Yesterday
High -- | Low -- °F
Precip. -- in
6:53 AM 8:22 PM
Full, 100% visible
Pressure 30.06 in
Visibility 10.0 miles
Clouds Overcast 5500 ft
Dew Point 58 °F
Humidity 84%
Rainfall 0.27 in
Snow Depth Not available.
UV 2 out of 12
Pollen 8.70 out of 12
Air Quality Not available.
Flu Activity Not available.
METAR KANJ 291455Z AUTO 00000KT 10SM OVC055 17/14 A3007 RMK AO2 RAB03E54 SLP179 P0001 60001 T01720144 53004
Pressure 30.06 in
Visibility 10.0 miles
Clouds Overcast 5500 ft
Dew Point 58 °F
Humidity 84%
Rainfall 0.27 in
Snow Depth Not available.
UV 2 out of 12
Pollen 8.70 out of 12
Air Quality Not available.
Flu Activity Not available.
METAR KANJ 291455Z AUTO 00000KT 10SM OVC055 17/14 A3007 RMK AO2 RAB03E54 SLP179 P0001 60001 T01720144 53004
Nowcast | as of 11:00 am EDT on August 29, 2015

At 12 PM...mostly cloudy. Scattered showers. Temperature 67. Southwest winds 8 mph. At 2 PM...mostly cloudy. Scattered showers. Temperature 69. Southwest winds 7 mph. At 4 PM...mostly cloudy. Scattered showers. Temperature 70. West winds 7 mph. At 6 PM...partly cloudy. Scattered showers. Temperature 69. Southwest winds 6 mph.

×

10-Day Weather Forecast

×

Almanac

Astronomy

Aug. 29, 2015 Rise Set
Actual Time
Civil Twilight
Nautical Twilight
Astronomical Twilight
Moon
Length of Visible Light
Length of Day
Tomorrow will be .
, % of the Moon is Illuminated

Today's Extremes

State Highs State Lows

Community

WunderPhotos

Upload Photos

1,850,684 photos uploaded!

WunderBlogs® & News

Nearby

Air Quality

  Air Quality AQ Index Pollutant
Not available.

Snow Depth

Station Depth Elevation

Earthquake Activity

City Distance Mag. Time & Date
Minimum magnitude displayed is 2.5.

Coastal Water Temperatures

Place Temperature

Stations

Nearby Weather Stations

Station Location Temp. Windchill Dew Point Humidity Wind Precip. Elev Updated Type